Walker, Minnesota
Current Conditions -  °F | °C
As of 12:55 AM on Monday 24 Nov 2014 (Local Time) from KY49 Reporting Station
Overcast Overcast  
Wind Chill:   Ceiling: 600
Heat Index: 19°   Visibility: 10mi
Dew Point: 18°   Wind: 10mph
Humidity: 93%   Direction: 300°WNW
Pressure: 29.41"   Gusts: NA
Location:  47.1°N, 94.59°W
Report Text: KY49 240655Z AUTO 30009KT 10SM OVC006 M07/M08 A2941 RMK AO2 T10701080
Loading
Personal Weather Stations






























Interactive Weather Map New forecast layout! Learn more

10-Day Weather Forecast

Advertisements
Track Severe Weather on mobile